Time;durP1;ratioP1;P1;durP2;ratioP2;P2;SDS_P1;SDS_P2;PMS_P1;PMS_P2;Temp;Humidity;BMP_temperature;BMP_pressure;BME280_temperature;BME280_humidity;BME280_pressure;Samples;Min_cycle;Max_cycle;Signal;HPM_P1;HPM_P2
2023/03/27 00:00:15;;;;;;;;;;;;;;;0.72;100.00;99612.97;4984157;28;20181;-84
2023/03/27 00:02:41;;;;;;;5.70;1.13;;;;;;;0.68;100.00;99608.09;4988391;28;19961;-84
2023/03/27 00:05:07;;;;;;;4.82;0.75;;;;;;;0.59;100.00;99612.34;4968800;28;20050;-84
2023/03/27 00:07:35;;;;;;;3.97;0.90;;;;;;;0.70;100.00;99667.44;4983427;28;20035;-83
2023/03/27 00:10:00;;;;;;;12.73;2.28;;;;;;;0.66;100.00;99667.84;4987462;28;20559;-83
2023/03/27 00:12:26;;;;;;;1.40;0.75;;;;;;;0.66;100.00;99689.69;4987940;28;20035;-84
2023/03/27 00:14:52;;;;;;;7.15;1.00;;;;;;;0.51;100.00;99654.97;4977570;28;20048;-85
2023/03/27 00:17:18;;;;;;;10.25;2.25;;;;;;;0.45;100.00;99686.19;4968934;28;20031;-84
2023/03/27 00:19:43;;;;;;;2.50;1.00;;;;;;;0.47;100.00;99744.63;4979057;28;20082;-83
2023/03/27 00:22:09;;;;;;;3.70;1.80;;;;;;;0.45;100.00;99739.53;4968272;28;20042;-83
2023/03/27 00:24:35;;;;;;;3.28;0.90;;;;;;;0.44;100.00;99732.59;4970894;28;20069;-82
2023/03/27 00:27:01;;;;;;;6.93;1.20;;;;;;;0.46;100.00;99762.19;4976913;28;20096;-83
2023/03/27 00:29:27;;;;;;;4.78;1.23;;;;;;;0.36;100.00;99754.22;4962273;28;20527;-84
2023/03/27 00:31:52;;;;;;;5.30;0.98;;;;;;;0.36;100.00;99769.97;4971006;28;20034;-83
2023/03/27 00:34:18;;;;;;;5.97;1.65;;;;;;;0.35;100.00;99739.44;4971254;28;20851;-84
2023/03/27 00:36:47;;;;;;;6.07;0.95;;;;;;;0.32;100.00;99746.69;4987129;28;20045;-82
2023/03/27 00:39:13;;;;;;;2.22;0.95;;;;;;;0.40;100.00;99779.28;4987077;28;20077;-83
2023/03/27 00:41:38;;;;;;;4.78;0.82;;;;;;;0.41;100.00;99786.19;4970643;28;20030;-82
2023/03/27 00:44:20;;;;;;;4.40;1.20;;;;;;;0.33;100.00;99767.59;5004759;28;20090;-79
2023/03/27 00:46:48;;;;;;;10.77;1.95;;;;;;;0.24;100.00;99763.06;4990405;28;20070;-85
2023/03/27 00:49:15;;;;;;;1.42;1.00;;;;;;;0.21;100.00;99773.78;4968806;28;20846;-82
2023/03/27 00:51:45;;;;;;;2.13;1.00;;;;;;;0.27;100.00;99810.06;4958679;28;20035;-85
2023/03/27 00:54:16;;;;;;;3.55;1.10;;;;;;;0.10;100.00;99776.44;4972261;28;20034;-85
2023/03/27 00:56:44;;;;;;;6.53;1.05;;;;;;;0.12;100.00;99819.16;4972259;28;20542;-84
2023/03/27 00:59:14;;;;;;;2.60;1.08;;;;;;;0.13;100.00;99833.94;4976804;28;20050;-84
2023/03/27 01:01:43;;;;;;;3.10;1.50;;;;;;;0.15;100.00;99832.88;4969226;28;20054;-83
2023/03/27 01:04:08;;;;;;;5.28;2.33;;;;;;;0.15;100.00;99837.28;4985322;28;20023;-84
2023/03/27 01:06:35;;;;;;;3.95;1.83;;;;;;;0.03;100.00;99832.97;4968061;28;20444;-84
2023/03/27 01:09:01;;;;;;;2.67;1.40;;;;;;;0.01;100.00;99861.97;4969091;28;20093;-85
2023/03/27 01:11:44;;;;;;;2.42;0.82;;;;;;;0.02;100.00;99879.38;4969843;28;20046;-82
2023/03/27 01:14:43;;;;;;;14.68;1.92;;;;;;;0.02;100.00;99876.75;4979556;28;20038;-84
2023/03/27 01:17:15;;;;;;;5.55;1.13;;;;;;;0.05;100.00;99875.66;4967877;28;20499;-83
2023/03/27 01:19:56;;;;;;;6.45;1.23;;;;;;;0.02;100.00;99860.16;4982718;28;20038;-85
2023/03/27 01:22:35;;;;;;;5.60;1.95;;;;;;;-0.13;100.00;99844.63;4984318;28;20307;-84
2023/03/27 01:25:10;;;;;;;4.38;1.60;;;;;;;-0.17;100.00;99858.09;4986620;28;20400;-85
2023/03/27 01:28:01;;;;;;;5.43;1.10;;;;;;;-0.16;100.00;99886.03;4979128;28;20086;-84
2023/03/27 01:30:38;;;;;;;4.30;1.20;;;;;;;-0.11;100.00;99889.97;4981024;28;20031;-83
2023/03/27 01:33:25;;;;;;;13.45;1.30;;;;;;;-0.05;100.00;99858.03;4983614;28;20522;-86
2023/03/27 01:36:15;;;;;;;7.00;1.33;;;;;;;-0.05;100.00;99841.41;4984456;28;20089;-86
2023/03/27 01:39:02;;;;;;;5.18;0.90;;;;;;;-0.01;100.00;99832.38;4986510;28;20031;-86
2023/03/27 01:41:39;;;;;;;5.22;0.95;;;;;;;-0.04;100.00;99815.06;4967672;28;20542;-86
2023/03/27 01:44:14;;;;;;;4.85;1.08;;;;;;;-0.04;100.00;99825.56;4967364;28;20118;-86
2023/03/27 01:46:53;;;;;;;3.78;1.00;;;;;;;-0.02;100.00;99825.47;4967385;28;20102;-87
2023/03/27 01:49:38;;;;;;;10.77;1.40;;;;;;;-0.05;100.00;99797.66;4960722;28;20031;-87
2023/03/27 01:52:10;;;;;;;3.08;0.80;;;;;;;-0.11;100.00;99799.91;4974987;28;20039;-86
2023/03/27 01:54:42;;;;;;;3.70;1.00;;;;;;;-0.27;100.00;99802.88;4986266;28;20086;-85
2023/03/27 01:57:21;;;;;;;7.00;1.50;;;;;;;-0.27;100.00;99823.84;4986791;28;20061;-87
2023/03/27 01:59:53;;;;;;;4.90;1.70;;;;;;;-0.22;100.00;99861.91;4984711;28;20046;-86
2023/03/27 02:02:25;;;;;;;3.90;0.90;;;;;;;-0.27;100.00;99871.91;4967818;28;20034;-85
2023/03/27 02:05:00;;;;;;;4.13;1.20;;;;;;;-0.20;100.00;99900.31;4986102;28;20030;-86
2023/03/27 02:07:32;;;;;;;1.15;0.63;;;;;;;-0.24;100.00;99891.81;4966868;28;20028;-85
2023/03/27 02:10:02;;;;;;;5.60;1.13;;;;;;;-0.33;100.00;99889.88;4975503;28;20043;-86
2023/03/27 02:12:32;;;;;;;3.92;0.80;;;;;;;-0.40;100.00;99902.59;4986254;28;20058;-86
2023/03/27 02:15:17;;;;;;;12.35;1.23;;;;;;;-0.36;100.00;99932.06;4975591;28;20045;-86
2023/03/27 02:17:51;;;;;;;4.55;0.90;;;;;;;-0.52;100.00;99920.06;4979694;28;20086;-86
2023/03/27 02:20:18;;;;;;;5.82;1.00;;;;;;;-0.65;100.00;99937.66;4973149;28;20056;-85
2023/03/27 02:22:47;;;;;;;4.13;1.10;;;;;;;-0.56;100.00;99976.34;4982829;28;20102;-86
2023/03/27 02:25:44;;;;;;;1.75;1.08;;;;;;;-0.57;100.00;100007.91;4959769;28;20024;-86
2023/03/27 02:28:21;;;;;;;7.05;1.25;;;;;;;-0.53;100.00;100025.94;4968973;28;20066;-85
2023/03/27 02:31:05;;;;;;;5.22;1.00;;;;;;;-0.52;100.00;100035.44;4986201;28;20126;-86
2023/03/27 02:33:55;;;;;;;3.58;1.00;;;;;;;-0.50;100.00;100053.72;4986122;28;20030;-86
2023/03/27 02:36:53;;;;;;;9.93;1.63;;;;;;;-0.56;100.00;100036.63;4985727;28;20041;-86
2023/03/27 02:39:33;;;;;;;12.73;1.77;;;;;;;-0.56;100.00;100055.00;4981627;28;20034;-86
2023/03/27 02:42:15;;;;;;;18.00;2.15;;;;;;;-0.61;100.00;100054.44;4985335;28;20043;-86
2023/03/27 02:44:58;;;;;;;5.90;1.30;;;;;;;-0.64;100.00;100055.50;4982812;28;20030;-87
2023/03/27 02:47:33;;;;;;;4.80;1.20;;;;;;;-0.48;100.00;100080.66;4985807;28;20446;-87
2023/03/27 02:50:04;;;;;;;9.57;1.10;;;;;;;-0.59;100.00;100065.69;4966789;28;20141;-86
2023/03/27 02:52:38;;;;;;;5.35;1.30;;;;;;;-0.59;100.00;100083.19;4982441;28;20046;-85
2023/03/27 02:55:18;;;;;;;6.82;1.67;;;;;;;-0.63;100.00;100098.31;4970266;28;20333;-87
2023/03/27 02:57:48;;;;;;;4.25;1.25;;;;;;;-0.66;100.00;100109.00;4968302;28;20042;-87
2023/03/27 03:00:47;;;;;;;5.97;1.45;;;;;;;-0.69;100.00;100141.50;4971307;28;20687;-87
2023/03/27 03:03:41;;;;;;;4.28;0.98;;;;;;;-0.73;100.00;100155.78;4952040;28;20042;-86
2023/03/27 03:06:28;;;;;;;4.15;1.15;;;;;;;-0.70;100.00;100181.78;4970717;28;20077;-86
2023/03/27 03:09:04;;;;;;;6.60;1.50;;;;;;;-0.75;100.00;100175.16;4984554;28;20035;-88
2023/03/27 03:11:32;;;;;;;7.55;1.20;;;;;;;-0.82;100.00;100181.78;4970553;28;20050;-86
2023/03/27 03:13:58;;;;;;;2.00;0.98;;;;;;;-0.72;100.00;100209.06;4970725;28;20905;-86
2023/03/27 03:16:24;;;;;;;4.90;1.63;;;;;;;-0.73;100.00;100204.75;4981654;28;20026;-87
2023/03/27 03:18:49;;;;;;;4.78;1.42;;;;;;;-0.69;100.00;100221.94;4986462;28;20031;-86
2023/03/27 03:21:15;;;;;;;4.47;1.45;;;;;;;-0.76;100.00;100216.28;4986510;28;20038;-87
2023/03/27 03:23:40;;;;;;;3.75;1.05;;;;;;;-0.72;100.00;100228.25;4987065;28;20113;-86
2023/03/27 03:26:06;;;;;;;6.23;1.83;;;;;;;-0.73;100.00;100223.94;4985333;28;20038;-85
2023/03/27 03:28:42;;;;;;;19.15;2.30;;;;;;;-0.71;100.00;100242.19;4986357;28;20297;-86
2023/03/27 03:31:09;;;;;;;6.10;2.20;;;;;;;-0.80;100.00;100232.31;4986947;28;20030;-86
2023/03/27 03:33:36;;;;;;;16.10;1.83;;;;;;;-0.78;100.00;100256.66;4989976;28;20023;-87
2023/03/27 03:36:02;;;;;;;6.07;1.50;;;;;;;-0.74;100.00;100258.13;4987755;28;20031;-86
2023/03/27 03:38:33;;;;;;;6.22;1.63;;;;;;;-0.75;100.00;100262.53;4984937;28;20033;-85
2023/03/27 03:41:00;;;;;;;7.32;1.70;;;;;;;-0.77;100.00;100255.69;4990090;28;20061;-86
2023/03/27 03:43:28;;;;;;;7.20;1.88;;;;;;;-0.81;100.00;100249.00;4974266;28;20026;-86
2023/03/27 03:45:54;;;;;;;14.25;1.98;;;;;;;-0.88;100.00;100240.69;4990187;28;20053;-87
2023/03/27 03:48:21;;;;;;;18.83;3.28;;;;;;;-0.90;100.00;100239.94;4973731;28;20043;-87
2023/03/27 03:50:47;;;;;;;7.50;1.52;;;;;;;-1.09;100.00;100232.47;4984600;28;20407;-87
2023/03/27 03:53:16;;;;;;;12.10;2.53;;;;;;;-0.99;100.00;100264.97;4971006;28;20042;-86
2023/03/27 03:55:42;;;;;;;6.55;1.80;;;;;;;-0.97;100.00;100278.81;4967577;28;20027;-87
2023/03/27 03:58:08;;;;;;;;;;;;;;;-0.93;100.00;100303.91;4967038;28;20046;-85
2023/03/27 04:00:38;;;;;;;7.97;2.25;;;;;;;-0.93;100.00;100288.16;4992131;28;19914;-87
2023/03/27 04:03:09;;;;;;;3.83;1.60;;;;;;;-0.94;100.00;100289.09;4989030;28;20080;-87
2023/03/27 04:05:36;;;;;;;8.13;1.80;;;;;;;-0.93;100.00;100284.72;4972672;28;20511;-86
2023/03/27 04:08:05;;;;;;;7.78;1.30;;;;;;;-1.00;100.00;100258.06;4981067;28;20027;-87
2023/03/27 04:10:31;;;;;;;18.52;1.95;;;;;;;-1.08;100.00;100265.56;4966419;28;20678;-86
2023/03/27 04:12:59;;;;;;;10.82;2.28;;;;;;;-1.03;100.00;100273.13;4972783;28;20046;-85
2023/03/27 04:15:38;;;;;;;6.22;1.95;;;;;;;-1.01;100.00;100282.56;4987630;28;20118;-89
2023/03/27 04:18:31;;;;;;;8.88;1.92;;;;;;;-0.99;100.00;100293.78;4973889;28;20031;-86
2023/03/27 04:20:58;;;;;;;11.00;1.48;;;;;;;-1.06;100.00;100285.50;4973279;28;20030;-86
2023/03/27 04:23:29;;;;;;;;;;;;;;;-0.97;100.00;100320.75;4973654;28;20475;-86
2023/03/27 04:25:58;;;;;;;8.32;2.15;;;;;;;-1.09;100.00;100311.06;4989382;28;19957;-86
2023/03/27 04:28:33;;;;;;;4.18;1.77;;;;;;;-1.04;100.00;100326.50;4982512;28;20598;-85
2023/03/27 04:31:10;;;;;;;16.38;2.20;;;;;;;-1.06;100.00;100323.97;4968298;28;20035;-86
2023/03/27 04:33:54;;;;;;;15.07;1.88;;;;;;;-1.20;100.00;100305.66;4967380;28;20131;-85
2023/03/27 04:36:41;;;;;;;4.95;1.67;;;;;;;-1.10;100.00;100330.31;4966683;28;20035;-87
2023/03/27 04:39:15;;;;;;;13.43;2.13;;;;;;;-1.02;100.00;100341.16;4979914;28;20041;-86
2023/03/27 04:41:44;;;;;;;4.30;1.60;;;;;;;-1.07;100.00;100341.47;4987951;28;20031;-85
2023/03/27 04:44:10;;;;;;;9.70;2.63;;;;;;;-1.04;100.00;100356.16;4987308;28;20019;-86
2023/03/27 04:46:40;;;;;;;6.78;2.25;;;;;;;-1.07;100.00;100351.09;4988673;28;20114;-86
2023/03/27 04:49:09;;;;;;;11.02;2.20;;;;;;;-1.07;100.00;100357.19;4979675;28;20030;-85
2023/03/27 04:51:48;;;;;;;9.23;1.95;;;;;;;-1.00;100.00;100368.13;4972060;28;20030;-86
2023/03/27 04:54:13;;;;;;;11.48;2.00;;;;;;;-1.04;100.00;100361.38;4972012;28;20596;-86
2023/03/27 04:56:44;;;;;;;9.98;3.15;;;;;;;-1.05;100.00;100354.47;4988035;28;20039;-87
2023/03/27 04:59:09;;;;;;;7.55;1.85;;;;;;;-1.04;100.00;100353.53;4969718;28;20031;-86
2023/03/27 05:01:35;;;;;;;12.82;2.90;;;;;;;-1.05;100.00;100349.25;4967074;28;20048;-86
2023/03/27 05:04:13;;;;;;;12.60;3.25;;;;;;;-1.12;100.00;100342.72;4980857;28;20037;-86
2023/03/27 05:06:48;;;;;;;10.57;1.85;;;;;;;-1.06;100.00;100342.28;4971820;28;20041;-88
2023/03/27 05:09:15;;;;;;;15.07;2.70;;;;;;;-1.01;100.00;100353.31;4971321;28;20087;-86
2023/03/27 05:11:43;;;;;;;8.38;2.28;;;;;;;-1.10;100.00;100341.66;4971500;28;20030;-86
2023/03/27 05:14:08;;;;;;;7.95;1.60;;;;;;;-1.07;100.00;100345.88;4987539;28;20110;-86
2023/03/27 05:16:35;;;;;;;5.82;1.73;;;;;;;-1.06;100.00;100355.41;4971352;28;20627;-85
2023/03/27 05:19:03;;;;;;;10.63;2.63;;;;;;;-1.10;100.00;100356.53;4970710;28;20027;-86
2023/03/27 05:21:36;;;;;;;5.30;1.70;;;;;;;-1.05;100.00;100367.56;4988019;28;20077;-86
2023/03/27 05:24:01;;;;;;;10.02;2.72;;;;;;;-1.07;100.00;100357.19;4970653;28;20028;-86
2023/03/27 05:26:27;;;;;;;5.10;1.58;;;;;;;-1.09;100.00;100358.22;4987158;28;20027;-86
2023/03/27 05:28:57;;;;;;;30.52;2.17;;;;;;;-1.08;100.00;100365.13;4987202;28;20039;-86
2023/03/27 05:31:23;;;;;;;6.45;2.60;;;;;;;-1.00;100.00;100377.78;4972961;28;20034;-86
2023/03/27 05:33:59;;;;;;;9.98;2.75;;;;;;;-0.97;100.00;100378.41;4988103;28;20041;-88
2023/03/27 05:36:28;;;;;;;10.27;1.83;;;;;;;-0.94;100.00;100372.94;4988265;28;20026;-88
2023/03/27 05:38:57;;;;;;;9.82;1.70;;;;;;;-0.88;100.00;100375.19;4987649;28;20026;-85
2023/03/27 05:41:35;;;;;;;6.07;2.47;;;;;;;-0.85;100.00;100388.09;4971795;28;20082;-87
2023/03/27 05:44:02;;;;;;;9.02;1.92;;;;;;;-0.82;100.00;100386.22;4988379;28;20027;-86
2023/03/27 05:46:32;;;;;;;10.07;2.70;;;;;;;-0.74;100.00;100394.44;4990877;28;20031;-87
2023/03/27 05:49:04;;;;;;;5.90;1.80;;;;;;;-0.69;100.00;100392.38;4992466;28;20026;-87
2023/03/27 05:51:30;;;;;;;10.57;2.45;;;;;;;-0.60;100.00;100398.81;4979666;28;20526;-87
2023/03/27 05:53:56;;;;;;;8.95;2.47;;;;;;;-0.54;100.00;100398.38;4996279;28;20027;-87
2023/03/27 05:56:30;;;;;;;9.77;2.83;;;;;;;-0.51;100.00;100396.41;4996775;28;20035;-87
2023/03/27 05:58:58;;;;;;;6.20;1.60;;;;;;;-0.45;100.00;100389.91;4996932;28;20958;-88
2023/03/27 06:01:25;;;;;;;10.80;2.92;;;;;;;-0.42;100.00;100394.97;4996628;28;20030;-87
2023/03/27 06:03:54;;;;;;;11.05;2.33;;;;;;;-0.36;100.00;100396.34;4979286;28;20750;-87
2023/03/27 06:06:22;;;;;;;6.63;1.98;;;;;;;-0.25;100.00;100399.13;4993098;28;20023;-86
2023/03/27 06:08:54;;;;;;;6.53;1.80;;;;;;;-0.14;100.00;100401.00;4993056;28;20093;-88
2023/03/27 06:11:20;;;;;;;10.57;2.83;;;;;;;1.31;100.00;100545.22;4991298;28;20050;-87
2023/03/27 06:13:46;;;;;;;8.57;2.80;;;;;;;2.44;100.00;100491.34;4991447;28;20033;-88
2023/03/27 06:16:19;;;;;;;11.40;1.48;;;;;;;2.91;100.00;100318.06;4990213;28;20038;-88
2023/03/27 06:19:03;;;;;;;11.75;2.53;;;;;;;3.57;100.00;100142.88;4988885;28;20133;-87
2023/03/27 06:21:29;;;;;;;7.70;1.90;;;;;;;3.73;100.00;99915.34;4991572;28;20431;-87
2023/03/27 06:23:57;;;;;;;11.30;1.80;;;;;;;4.06;100.00;99752.94;4989914;28;20117;-87
2023/03/27 06:26:23;;;;;;;4.73;1.80;;;;;;;4.50;100.00;99591.94;4972051;28;20504;-87
2023/03/27 06:28:49;;;;;;;3.20;1.45;;;;;;;4.33;100.00;99398.06;4988456;28;20296;-88
2023/03/27 06:31:16;;;;;;;12.57;2.10;;;;;;;4.56;100.00;99315.56;4972407;28;20110;-88
2023/03/27 06:34:04;;;;;;;7.30;2.22;;;;;;;4.76;100.00;99219.16;4987070;28;20054;-89
2023/03/27 06:36:40;;;;;;;7.95;1.95;;;;;;;5.54;100.00;99156.16;4983514;28;20035;-88
2023/03/27 06:39:07;;;;;;;5.60;2.10;;;;;;;5.92;100.00;98974.41;4988946;28;20368;-88
2023/03/27 06:41:32;;;;;;;8.75;2.53;;;;;;;5.36;100.00;98640.28;4991977;28;20109;-89
2023/03/27 06:44:16;;;;;;;10.20;1.95;;;;;;;5.53;100.00;98842.16;4989084;28;20038;-87
2023/03/27 06:46:54;;;;;;;3.75;1.52;;;;;;;5.63;100.00;98768.59;4989988;28;20034;-85
2023/03/27 06:49:48;;;;;;;5.40;1.80;;;;;;;4.16;100.00;98607.31;4972899;28;20121;-88
2023/03/27 06:52:20;;;;;;;9.95;2.17;;;;;;;3.46;100.00;98732.09;4970028;28;20027;-86
2023/03/27 06:54:46;;;;;;;;;;;;;;;2.99;100.00;98903.28;4978622;28;20027;-87
2023/03/27 06:57:12;;;;;;;13.23;2.28;;;;;;;2.65;100.00;99036.72;4990022;28;19938;-88
2023/03/27 07:00:11;;;;;;;9.00;1.80;;;;;;;2.59;100.00;99150.59;4981859;28;20065;-87
2023/03/27 07:02:59;;;;;;;10.88;1.83;;;;;;;2.19;100.00;99148.38;4985840;28;20034;-87
2023/03/27 07:05:44;;;;;;;6.35;2.60;;;;;;;2.71;100.00;99415.56;4973601;28;20062;-88
2023/03/27 07:08:12;;;;;;;17.02;1.92;;;;;;;3.50;100.00;99532.94;4972349;28;20034;-87
2023/03/27 07:10:41;;;;;;;4.28;1.80;;;;;;;3.81;100.00;99425.19;4989590;28;20038;-88
2023/03/27 07:13:06;;;;;;;4.15;1.38;;;;;;;4.09;100.00;99316.00;4993097;28;20045;-87
2023/03/27 07:15:32;;;;;;;8.27;2.17;;;;;;;4.36;100.00;99256.88;4976634;28;20023;-89
2023/03/27 07:18:00;;;;;;;7.55;2.00;;;;;;;4.93;100.00;99261.50;4987047;28;20097;-88
2023/03/27 07:20:27;;;;;;;10.35;2.20;;;;;;;5.39;100.00;99212.41;4993608;28;20585;-88
2023/03/27 07:22:56;;;;;;;5.97;1.48;;;;;;;5.54;100.00;99024.59;4994216;28;20146;-87
2023/03/27 07:25:50;;;;;;;6.40;1.30;;;;;;;5.48;100.00;98809.09;4975464;28;20395;-87
2023/03/27 07:28:28;;;;;;;9.93;1.73;;;;;;;5.11;100.00;98639.72;4977360;28;20034;-89
2023/03/27 07:30:53;;;;;;;4.85;1.60;;;;;;;5.31;100.00;98714.09;4980359;28;20039;-87
2023/03/27 07:33:19;;;;;;;5.25;1.45;;;;;;;5.31;100.00;98751.97;4974394;28;20059;-87
2023/03/27 07:35:47;;;;;;;7.55;2.40;;;;;;;5.35;100.00;98802.72;4993832;28;20034;-88
2023/03/27 07:38:35;;;;;;;6.53;2.38;;;;;;;4.83;100.00;98614.66;4993452;28;20031;-88
2023/03/27 07:43:56;;;;;;;6.88;1.85;;;;;;;5.74;100.00;98915.63;4961956;28;20062;-77
2023/03/27 07:46:25;;;;;;;6.95;2.05;;;;;;;5.84;100.00;98797.03;4973124;28;20763;-78
2023/03/27 07:48:52;;;;;;;6.72;1.63;;;;;;;6.00;100.00;98721.94;4955848;28;20117;-78
2023/03/27 07:51:22;;;;;;;3.40;1.25;;;;;;;6.24;98.96;98618.28;4948061;29;20082;-78
2023/03/27 07:53:52;;;;;;;6.07;1.42;;;;;;;5.99;98.04;98471.28;4954353;28;20036;-79
2023/03/27 07:56:22;;;;;;;5.60;1.42;;;;;;;5.66;98.43;98519.38;4942857;29;20042;-78
2023/03/27 07:58:54;;;;;;;5.80;1.17;;;;;;;4.82;98.63;98368.94;4951477;28;20106;-78
2023/03/27 08:01:20;;;;;;;5.13;1.20;;;;;;;5.09;100.00;98698.09;4943404;29;20038;-77
2023/03/27 08:03:47;;;;;;;6.55;1.42;;;;;;;5.75;99.84;98792.81;4963187;28;20429;-77
2023/03/27 08:06:13;;;;;;;10.80;2.58;;;;;;;5.55;98.50;98650.38;4949377;28;20601;-79
2023/03/27 08:08:39;;;;;;;2.40;1.35;;;;;;;6.16;98.65;98817.13;4942392;29;20634;-78
2023/03/27 08:11:05;;;;;;;9.48;1.30;;;;;;;5.70;95.96;98415.56;4949694;28;20035;-77
2023/03/27 08:13:37;;;;;;;5.20;1.33;;;;;;;6.16;95.77;98569.88;4944546;29;20024;-77
2023/03/27 08:16:08;;;;;;;8.55;1.23;;;;;;;6.19;95.39;98583.59;4949512;28;20027;-78
2023/03/27 08:18:35;;;;;;;3.72;1.50;;;;;;;6.72;93.96;98549.66;4955649;28;20515;-78
2023/03/27 08:21:02;;;;;;;6.70;1.15;;;;;;;6.68;92.99;98490.03;4952787;28;20033;-77
2023/03/27 08:23:29;;;;;;;6.63;1.33;;;;;;;6.95;92.96;98594.53;4953245;28;20326;-79
2023/03/27 08:26:15;;;;;;;4.88;1.80;;;;;;;7.59;89.56;98438.69;4956464;28;20393;-76
2023/03/27 08:28:52;;;;;;;7.05;1.63;;;;;;;7.33;87.95;98201.34;4949126;28;20096;-78
2023/03/27 08:31:19;;;;;;;4.68;1.25;;;;;;;6.42;87.50;97931.41;4943031;29;20036;-77
2023/03/27 08:33:45;;;;;;;7.10;2.22;;;;;;;7.16;88.26;98303.56;4949642;28;20030;-78
2023/03/27 08:36:18;;;;;;;8.15;1.52;;;;;;;5.97;87.59;97970.09;4949928;29;20035;-78
2023/03/27 08:38:45;;;;;;;2.38;1.20;;;;;;;6.54;87.42;98160.41;4949082;28;20033;-80
2023/03/27 08:41:37;;;;;;;5.85;1.30;;;;;;;6.51;86.86;98093.72;4938467;28;20030;-78
2023/03/27 08:44:17;;;;;;;8.52;1.23;;;;;;;6.62;85.37;97994.22;4957561;28;20028;-79
2023/03/27 08:47:01;;;;;;;4.43;0.90;;;;;;;7.49;83.59;98088.63;4941470;28;20041;-78
2023/03/27 08:49:35;;;;;;;3.00;0.85;;;;;;;6.24;82.04;97545.22;4952329;28;20027;-78
2023/03/27 08:52:22;;;;;;;8.73;1.38;;;;;;;6.58;82.73;97869.22;4953006;28;20077;-78
2023/03/27 08:54:57;;;;;;;8.27;1.70;;;;;;;6.32;82.99;97839.09;4949035;28;20042;-78
2023/03/27 08:57:31;;;;;;;7.20;1.08;;;;;;;5.43;81.68;97467.19;4952098;28;20496;-78
2023/03/27 09:00:08;;;;;;;3.47;1.08;;;;;;;5.12;82.37;97533.19;4961408;28;20708;-77
2023/03/27 09:02:51;;;;;;;3.35;1.05;;;;;;;5.55;82.01;97675.56;4949135;28;20677;-77
2023/03/27 09:05:22;;;;;;;4.25;1.70;;;;;;;5.12;80.25;97370.03;4945652;28;20026;-78
2023/03/27 09:08:16;;;;;;;8.73;1.50;;;;;;;6.86;78.99;97804.47;4948758;28;20085;-78
2023/03/27 09:11:00;;;;;;;4.70;1.00;;;;;;;8.48;77.13;98004.19;4948449;28;20374;-78
2023/03/27 09:13:43;;;;;;;6.47;0.80;;;;;;;8.51;71.17;97215.94;4959480;28;20033;-78
2023/03/27 09:16:27;;;;;;;6.50;1.38;;;;;;;8.58;69.36;97031.28;4948911;28;20043;-79
2023/03/27 09:19:07;;;;;;;2.80;1.02;;;;;;;7.94;68.38;96733.16;4946554;28;20039;-77
2023/03/27 09:21:41;;;;;;;5.53;1.70;;;;;;;7.53;67.84;96599.84;4948641;28;20071;-78
2023/03/27 09:24:53;;;;;;;3.72;0.98;;;;;;;7.34;68.23;96695.59;4940210;28;20038;-79
2023/03/27 09:27:47;;;;;;;3.63;0.73;;;;;;;8.74;68.91;97366.66;4951566;28;20090;-77
2023/03/27 09:30:32;;;;;;;4.90;0.90;;;;;;;8.13;64.43;96502.59;4947734;28;20035;-77
2023/03/27 09:33:12;;;;;;;7.15;1.10;;;;;;;6.83;64.59;96102.78;4960654;28;20045;-77
2023/03/27 09:35:40;;;;;;;1.90;1.15;;;;;;;7.88;65.15;96715.53;4949040;28;20385;-78
2023/03/27 09:38:28;;;;;;;5.07;1.10;;;;;;;7.40;65.13;96559.31;4943689;29;20061;-78
2023/03/27 09:41:05;;;;;;;4.63;1.45;;;;;;;8.22;64.36;96782.72;4963806;28;20437;-77
2023/03/27 09:43:43;;;;;;;8.68;1.40;;;;;;;8.25;63.18;96638.75;4964757;28;20027;-78
2023/03/27 09:46:16;;;;;;;2.83;1.23;;;;;;;8.95;61.32;96650.41;4932018;28;20122;-78
2023/03/27 09:48:59;;;;;;;4.55;1.00;;;;;;;8.99;60.09;96411.28;4948115;28;20062;-78
2023/03/27 09:51:40;;;;;;;6.45;1.17;;;;;;;8.29;60.63;96314.84;4946587;28;20035;-78
2023/03/27 09:54:13;;;;;;;3.38;0.95;;;;;;;8.23;59.72;96250.28;4944098;28;20101;-77
2023/03/27 09:57:11;;;;;;;1.60;0.63;;;;;;;8.10;58.58;96048.84;4964865;28;20067;-79
2023/03/27 09:59:50;;;;;;;4.60;1.27;;;;;;;7.42;58.86;95902.91;4901122;29;20039;-78
2023/03/27 10:02:29;;;;;;;4.78;1.42;;;;;;;7.37;59.82;96084.91;4946755;29;20131;-78
2023/03/27 10:04:59;;;;;;;2.88;0.80;;;;;;;7.51;59.10;96140.94;4949589;28;20031;-79
2023/03/27 10:07:30;;;;;;;4.20;1.00;;;;;;;7.90;58.20;96164.56;4948688;28;20732;-77
2023/03/27 10:10:36;;;;;;;2.97;0.88;;;;;;;7.53;57.88;95950.44;4944683;28;20105;-77
2023/03/27 10:13:05;;;;;;;4.45;1.50;;;;;;;7.37;56.97;95784.31;4950879;28;20039;-78
2023/03/27 10:15:40;;;;;;;4.78;1.15;;;;;;;8.04;57.04;96186.16;4948764;28;20030;-79
2023/03/27 10:18:25;;;;;;;3.00;1.00;;;;;;;8.67;57.35;96499.91;4948200;28;20034;-79
2023/03/27 10:20:56;;;;;;;4.68;1.33;;;;;;;7.69;56.28;95828.41;4949526;28;20039;-78
2023/03/27 10:23:38;;;;;;;2.83;1.15;;;;;;;6.72;55.98;95469.31;4948689;28;20042;-78
2023/03/27 10:26:09;;;;;;;3.00;1.13;;;;;;;6.62;56.92;95678.63;4965286;28;20034;-79
2023/03/27 10:28:50;;;;;;;5.28;1.05;;;;;;;6.92;58.93;96241.78;4964491;28;20031;-77
2023/03/27 10:31:31;;;;;;;4.38;1.00;;;;;;;6.32;58.88;96028.91;4946387;28;20449;-79
2023/03/27 10:34:36;;;;;;;3.78;1.35;;;;;;;6.41;59.92;96347.94;4949940;28;20035;-79
2023/03/27 10:37:33;;;;;;;9.10;2.30;;;;;;;6.21;60.50;96360.91;4946328;28;20077;-78
2023/03/27 10:40:20;;;;;;;5.35;1.25;;;;;;;5.48;61.32;96261.00;4945664;28;20038;-78
2023/03/27 10:42:49;;;;;;;6.88;1.58;;;;;;;4.86;63.76;96475.78;4951741;28;20068;-77
2023/03/27 10:45:20;;;;;;;8.05;1.42;;;;;;;3.99;71.66;97421.22;4952204;28;20031;-78
2023/03/27 10:47:51;;;;;;;4.05;1.25;;;;;;;3.21;81.79;98581.00;4952569;28;20037;-77
2023/03/27 10:50:23;;;;;;;4.75;1.63;;;;;;;2.84;92.02;99354.63;4951302;28;20062;-77
2023/03/27 10:53:04;;;;;;;5.32;1.52;;;;;;;3.83;99.46;100069.31;4967551;28;20377;-78
2023/03/27 10:55:50;;;;;;;4.90;0.70;;;;;;;5.36;100.00;100329.75;4951997;28;20034;-78
2023/03/27 10:58:22;;;;;;;3.40;0.95;;;;;;;6.20;98.84;100238.97;4972548;28;20031;-79
2023/03/27 11:00:57;;;;;;;2.05;0.88;;;;;;;7.63;97.58;100356.91;4974621;28;20043;-78
2023/03/27 11:03:46;;;;;;;2.58;1.00;;;;;;;8.24;91.58;99901.28;4952599;28;20035;-80
2023/03/27 11:06:15;;;;;;;2.92;1.35;;;;;;;8.89;87.07;99554.31;4971099;28;20043;-78
2023/03/27 11:09:04;;;;;;;3.45;0.68;;;;;;;9.16;83.63;99289.28;4966914;28;20393;-78
2023/03/27 11:11:41;;;;;;;1.25;0.40;;;;;;;9.51;81.02;99095.75;4950796;28;20041;-78
2023/03/27 11:14:16;;;;;;;3.22;0.80;;;;;;;9.82;79.76;99043.00;4951984;28;20034;-78
2023/03/27 11:16:47;;;;;;;3.88;0.98;;;;;;;9.84;78.03;98812.56;4948426;28;20082;-78
2023/03/27 11:19:59;;;;;;;;;;;;;;;9.68;76.13;98667.25;4947767;28;20043;-79
2023/03/27 11:23:04;;;;;;;3.05;1.20;;;;;;;9.82;72.45;98257.63;4921094;28;19921;-79
2023/03/27 11:25:52;;;;;;;2.58;0.80;;;;;;;10.54;71.47;98402.03;4951440;28;20480;-78
2023/03/27 11:28:42;;;;;;;1.15;0.70;;;;;;;10.38;67.72;97786.50;4950096;28;20787;-79
2023/03/27 11:31:27;;;;;;;3.22;0.70;;;;;;;10.61;69.22;98148.50;4927750;29;20623;-78
2023/03/27 11:34:09;;;;;;;3.63;0.90;;;;;;;10.97;67.23;98007.94;4966549;28;20153;-79
2023/03/27 11:36:58;;;;;;;3.90;0.70;;;;;;;9.79;62.26;96973.09;4950933;28;20035;-78
2023/03/27 11:39:57;;;;;;;4.90;0.90;;;;;;;9.69;64.24;97280.91;4949833;28;20039;-78
2023/03/27 11:42:29;;;;;;;3.53;0.80;;;;;;;8.75;64.06;96993.25;4951349;28;20715;-79
2023/03/27 11:44:55;;;;;;;2.67;0.60;;;;;;;8.32;63.96;96872.41;4951004;28;20580;-78
2023/03/27 11:47:56;;;;;;;3.90;0.68;;;;;;;8.97;64.38;97328.56;4950981;28;20147;-78
2023/03/27 11:50:28;;;;;;;8.13;1.88;;;;;;;8.21;64.29;97010.41;4949719;28;20042;-77
2023/03/27 11:53:34;;;;;;;4.38;0.70;;;;;;;7.61;65.57;97009.03;4951469;28;20043;-78
2023/03/27 11:56:42;;;;;;;6.95;0.98;;;;;;;7.38;63.77;96693.28;4951094;28;20092;-79
2023/03/27 12:00:01;;;;;;;7.38;1.00;;;;;;;7.87;65.52;97309.63;4950403;28;20037;-78
2023/03/27 12:02:55;;;;;;;2.60;1.20;;;;;;;7.40;65.18;97052.09;4952451;28;20568;-79
2023/03/27 12:05:39;;;;;;;3.72;1.23;;;;;;;7.01;65.33;96979.34;4948742;28;20039;-78
2023/03/27 12:08:14;;;;;;;3.88;1.00;;;;;;;6.85;64.14;96750.19;4951867;28;20061;-79